Time;durP1;ratioP1;P1;durP2;ratioP2;P2;SDS_P1;SDS_P2;PMS_P1;PMS_P2;Temp;Humidity;BMP_temperature;BMP_pressure;BME280_temperature;BME280_humidity;BME280_pressure;Samples;Min_cycle;Max_cycle;Signal;HPM_P1;HPM_P2
2021/12/29 00:00:43;;;;;;;;;4.67;3.00;;;;;;;;5023175;28;45528;-80
2021/12/29 00:03:09;;;;;;;;;8.00;2.50;;;;;;;;5015246;28;46041;-80
2021/12/29 00:05:34;;;;;;;;;4.50;3.00;;;;;;;;5018876;28;45662;-80
2021/12/29 00:07:59;;;;;;;;;5.67;3.00;;;;;;;;5025638;28;45446;-80
2021/12/29 00:10:25;;;;;;;;;9.75;4.00;;;;;;;;5031326;28;45508;-80
2021/12/29 00:12:52;;;;;;;;;6.00;4.00;;;;;;;;5042885;28;45798;-80
2021/12/29 00:15:18;;;;;;;;;8.75;4.00;;;;;;;;5019884;28;45422;-80
2021/12/29 00:17:45;;;;;;;;;5.75;3.50;;;;;;;;5017166;28;45503;-79
2021/12/29 00:20:11;;;;;;;;;4.25;3.00;;;;;;;;5024420;28;45289;-80
2021/12/29 00:22:37;;;;;;;;;7.00;4.50;;;;;;;;5023682;28;45633;-81
2021/12/29 00:25:03;;;;;;;;;7.50;4.25;;;;;;;;5022838;28;45448;-80
2021/12/29 00:27:28;;;;;;;;;7.75;4.00;;;;;;;;5030657;28;45536;-80
2021/12/29 00:29:54;;;;;;;;;5.67;4.00;;;;;;;;5028387;28;45578;-80
2021/12/29 00:32:19;;;;;;;;;6.33;3.67;;;;;;;;5018698;28;45503;-80
2021/12/29 00:34:44;;;;;;;;;9.00;4.00;;;;;;;;5023438;28;45422;-79
2021/12/29 00:37:09;;;;;;;;;13.25;4.25;;;;;;;;5027226;28;45868;-80
2021/12/29 00:39:35;;;;;;;;;7.00;3.33;;;;;;;;5013487;28;45535;-79
2021/12/29 00:42:01;;;;;;;;;5.33;3.67;;;;;;;;5032490;28;45441;-79
2021/12/29 00:44:26;;;;;;;;;14.50;5.75;;;;;;;;5020735;28;45297;-80
2021/12/29 00:46:54;;;;;;;;;13.33;5.00;;;;;;;;5018904;28;48537;-80
2021/12/29 00:49:20;;;;;;;;;6.50;3.50;;;;;;;;5030644;28;46010;-80
2021/12/29 00:51:45;;;;;;;;;6.75;5.00;;;;;;;;5025181;28;51091;-80
2021/12/29 00:54:11;;;;;;;;;10.75;4.00;;;;;;;;5027497;28;45523;-81
2021/12/29 00:56:37;;;;;;;;;12.67;5.33;;;;;;;;5030165;28;46039;-80
2021/12/29 00:59:02;;;;;;;;;8.75;5.25;;;;;;;;5032001;28;45974;-81
2021/12/29 01:01:29;;;;;;;;;5.50;3.25;;;;;;;;5027397;28;45715;-81
2021/12/29 01:03:54;;;;;;;;;9.25;5.00;;;;;;;;5018515;28;45820;-81
2021/12/29 01:06:19;;;;;;;;;12.67;8.00;;;;;;;;5017044;28;46100;-81
2021/12/29 01:08:44;;;;;;;;;12.00;3.00;;;;;;;;5020482;28;45939;-81
2021/12/29 01:11:10;;;;;;;;;9.00;6.33;;;;;;;;5020650;28;45642;-81
2021/12/29 01:13:41;;;;;;;;;9.75;5.00;;;;;;;;5027540;28;45387;-81
2021/12/29 01:18:33;;;;;;;;;10.33;4.00;;;;;;;;5016084;28;45595;-81
2021/12/29 01:20:58;;;;;;;;;3.75;2.50;;;;;;;;5049933;28;45526;-80
2021/12/29 01:23:23;;;;;;;;;8.33;5.33;;;;;;;;5031403;28;46102;-80
2021/12/29 01:25:48;;;;;;;;;10.50;4.75;;;;;;;;5032073;28;47878;-81
2021/12/29 01:28:14;;;;;;;;;8.67;6.00;;;;;;;;5029450;28;45443;-80
2021/12/29 01:30:39;;;;;;;;;11.00;4.00;;;;;;;;5022508;28;45883;-80
2021/12/29 01:33:06;;;;;;;;;6.67;5.00;;;;;;;;5018092;28;45454;-80
2021/12/29 01:35:32;;;;;;;;;10.75;6.50;;;;;;;;5034012;28;47602;-80
2021/12/29 01:37:57;;;;;;;;;11.75;5.50;;;;;;;;5033725;28;45337;-80
2021/12/29 01:40:22;;;;;;;;;9.33;5.00;;;;;;;;5018586;28;45562;-80
2021/12/29 01:42:47;;;;;;;;;8.00;5.25;;;;;;;;5015757;28;45435;-80
2021/12/29 01:45:13;;;;;;;;;8.00;5.00;;;;;;;;5016137;28;46469;-80
2021/12/29 01:47:38;;;;;;;;;9.00;5.75;;;;;;;;5018708;28;45339;-80
2021/12/29 01:50:08;;;;;;;;;7.75;5.00;;;;;;;;5022631;28;45512;-80
2021/12/29 01:52:38;;;;;;;;;7.75;5.25;;;;;;;;5031421;28;45416;-80
2021/12/29 01:55:04;;;;;;;;;8.50;5.50;;;;;;;;5029885;28;45626;-80
2021/12/29 01:57:30;;;;;;;;;8.75;4.00;;;;;;;;5013310;28;45938;-80
2021/12/29 01:59:55;;;;;;;;;7.75;4.50;;;;;;;;5028801;28;45360;-80
2021/12/29 02:02:20;;;;;;;;;7.00;5.00;;;;;;;;5018241;28;45498;-80
2021/12/29 02:04:46;;;;;;;;;6.67;5.33;;;;;;;;5017939;28;46473;-80
2021/12/29 02:07:12;;;;;;;;;5.75;4.00;;;;;;;;5017741;28;45495;-80
2021/12/29 02:09:37;;;;;;;;;8.75;5.50;;;;;;;;5015596;28;45977;-80
2021/12/29 02:12:03;;;;;;;;;11.25;3.00;;;;;;;;5032506;28;45608;-80
2021/12/29 02:14:28;;;;;;;;;10.25;4.75;;;;;;;;5026481;28;46125;-80
2021/12/29 02:16:54;;;;;;;;;5.67;3.00;;;;;;;;5021212;28;45950;-80
2021/12/29 02:19:19;;;;;;;;;11.50;5.00;;;;;;;;5016939;28;45558;-81
2021/12/29 02:21:53;;;;;;;;;8.00;4.00;;;;;;;;5029089;28;45494;-80
2021/12/29 02:24:21;;;;;;;;;7.00;2.00;;;;;;;;5014986;28;45574;-80
2021/12/29 02:26:46;;;;;;;;;7.00;2.25;;;;;;;;5017459;28;45884;-80
2021/12/29 02:29:13;;;;;;;;;9.25;3.00;;;;;;;;5023895;28;45720;-80
2021/12/29 02:31:38;;;;;;;;;8.50;4.00;;;;;;;;5025807;28;45336;-80
2021/12/29 02:34:05;;;;;;;;;5.75;3.00;;;;;;;;4982275;28;1348690;-80
2021/12/29 02:36:30;;;;;;;;;5.25;3.25;;;;;;;;5030971;28;46599;-80
2021/12/29 02:38:56;;;;;;;;;7.50;4.00;;;;;;;;5034388;28;45475;-80
2021/12/29 02:41:24;;;;;;;;;4.75;3.75;;;;;;;;5029777;28;45939;-80
2021/12/29 02:43:57;;;;;;;;;8.25;4.00;;;;;;;;5028761;28;46604;-80
2021/12/29 02:46:22;;;;;;;;;8.50;5.00;;;;;;;;5026199;28;46024;-80
2021/12/29 02:48:54;;;;;;;;;7.00;2.33;;;;;;;;5021566;28;45564;-79
2021/12/29 02:51:20;;;;;;;;;7.00;4.00;;;;;;;;5029839;28;45359;-81
2021/12/29 02:53:45;;;;;;;;;6.50;4.50;;;;;;;;5031446;28;45961;-80
2021/12/29 02:56:10;;;;;;;;;5.00;4.00;;;;;;;;5027377;28;45886;-80
2021/12/29 02:58:35;;;;;;;;;7.33;4.00;;;;;;;;5029057;28;45551;-80
2021/12/29 03:01:04;;;;;;;;;6.67;2.00;;;;;;;;5027400;28;45430;-78
2021/12/29 03:03:36;;;;;;;;;5.25;4.50;;;;;;;;5028982;28;47133;-79
2021/12/29 03:06:01;;;;;;;;;7.50;3.50;;;;;;;;5031608;28;45975;-79
2021/12/29 03:08:27;;;;;;;;;8.33;4.00;;;;;;;;5028707;28;45817;-79
2021/12/29 03:10:53;;;;;;;;;4.33;3.00;;;;;;;;5029388;28;45559;-79
2021/12/29 03:13:19;;;;;;;;;12.25;4.75;;;;;;;;5029310;28;46283;-80
2021/12/29 03:15:44;;;;;;;;;5.75;3.50;;;;;;;;5029785;28;46040;-79
2021/12/29 03:18:10;;;;;;;;;4.67;2.00;;;;;;;;5028637;28;45519;-80
2021/12/29 03:20:35;;;;;;;;;3.25;2.00;;;;;;;;5030459;28;45576;-81
2021/12/29 03:23:00;;;;;;;;;5.00;2.00;;;;;;;;5028449;28;45855;-80
2021/12/29 03:25:26;;;;;;;;;4.25;2.25;;;;;;;;5026231;28;46524;-80
2021/12/29 03:27:51;;;;;;;;;7.25;4.00;;;;;;;;5030135;28;45628;-80
2021/12/29 03:30:17;;;;;;;;;7.00;3.00;;;;;;;;5031412;28;45497;-80
2021/12/29 03:32:50;;;;;;;;;3.75;1.50;;;;;;;;5016278;28;45805;-79
2021/12/29 03:35:15;;;;;;;;;4.25;3.00;;;;;;;;5026784;28;45956;-81
2021/12/29 03:37:40;;;;;;;;;4.00;3.00;;;;;;;;5027354;28;45439;-79
2021/12/29 03:40:06;;;;;;;;;6.00;3.00;;;;;;;;5028735;28;45812;-80
2021/12/29 03:42:32;;;;;;;;;8.00;3.00;;;;;;;;5028313;28;46250;-78
2021/12/29 03:44:57;;;;;;;;;4.00;2.75;;;;;;;;5032539;28;47538;-81
2021/12/29 03:47:23;;;;;;;;;8.75;2.75;;;;;;;;5027177;28;45754;-81
2021/12/29 03:49:48;;;;;;;;;8.00;4.00;;;;;;;;5028434;28;45505;-81
2021/12/29 03:52:13;;;;;;;;;4.33;3.00;;;;;;;;5030071;28;46466;-80
2021/12/29 03:54:38;;;;;;;;;5.33;2.00;;;;;;;;5029316;28;45435;-79
2021/12/29 03:57:03;;;;;;;;;7.33;3.67;;;;;;;;5028264;28;45591;-79
2021/12/29 03:59:29;;;;;;;;;2.00;2.00;;;;;;;;5025931;28;45588;-80
2021/12/29 04:01:54;;;;;;;;;3.00;2.25;;;;;;;;5022415;28;46416;-80
2021/12/29 04:04:20;;;;;;;;;4.50;2.00;;;;;;;;5019043;28;45498;-79
2021/12/29 04:06:46;;;;;;;;;3.75;3.00;;;;;;;;5028202;28;45462;-79
2021/12/29 04:09:11;;;;;;;;;6.25;3.00;;;;;;;;5031228;28;45564;-80
2021/12/29 04:11:36;;;;;;;;;6.67;3.67;;;;;;;;5029442;28;47414;-80
2021/12/29 04:14:02;;;;;;;;;3.00;2.33;;;;;;;;5023689;28;45594;-80
2021/12/29 04:16:27;;;;;;;;;2.00;2.00;;;;;;;;5017788;28;45900;-80
2021/12/29 04:19:06;;;;;;;;;4.00;2.00;;;;;;;;5042985;28;45558;-80
2021/12/29 04:21:32;;;;;;;;;6.50;2.75;;;;;;;;5012475;28;45584;-80
2021/12/29 04:23:57;;;;;;;;;3.00;2.00;;;;;;;;5032521;28;45359;-80
2021/12/29 04:26:22;;;;;;;;;4.33;1.33;;;;;;;;5023824;28;45583;-80
2021/12/29 04:28:47;;;;;;;;;2.67;1.00;;;;;;;;5032962;28;45454;-80
2021/12/29 04:31:13;;;;;;;;;2.00;2.00;;;;;;;;5026453;28;46007;-80
2021/12/29 04:33:38;;;;;;;;;2.25;2.00;;;;;;;;5013830;28;45623;-81
2021/12/29 04:36:04;;;;;;;;;6.00;3.00;;;;;;;;5028915;28;45505;-80
2021/12/29 04:38:29;;;;;;;;;1.50;1.00;;;;;;;;5026836;28;45415;-81
2021/12/29 04:40:55;;;;;;;;;10.67;3.00;;;;;;;;5021647;28;45655;-80
2021/12/29 04:43:21;;;;;;;;;3.50;1.00;;;;;;;;5020303;28;45600;-78
2021/12/29 04:45:46;;;;;;;;;2.50;2.00;;;;;;;;5027685;28;45671;-79
2021/12/29 04:48:13;;;;;;;;;3.25;2.00;;;;;;;;5013691;28;45624;-80
2021/12/29 04:50:49;;;;;;;;;2.00;2.00;;;;;;;;5027310;28;46398;-78
2021/12/29 04:53:15;;;;;;;;;1.00;1.00;;;;;;;;5017467;28;45857;-80
2021/12/29 04:55:45;;;;;;;;;3.50;1.00;;;;;;;;5016684;28;45792;-80
2021/12/29 04:58:10;;;;;;;;;1.00;1.00;;;;;;;;5033434;28;45569;-80
2021/12/29 05:00:36;;;;;;;;;1.50;1.00;;;;;;;;5029903;28;45549;-81
2021/12/29 05:03:02;;;;;;;;;2.75;1.00;;;;;;;;5027787;28;45415;-80
2021/12/29 05:10:39;;;;;;;;;2.75;1.00;;;;;;;;5024363;28;45696;-80
2021/12/29 05:13:04;;;;;;;;;3.00;1.00;;;;;;;;5025776;28;45426;-80
2021/12/29 05:15:29;;;;;;;;;1.00;1.00;;;;;;;;5027035;28;45663;-80
2021/12/29 05:17:56;;;;;;;;;3.00;0.00;;;;;;;;5026382;28;45520;-80
2021/12/29 05:20:22;;;;;;;;;2.25;1.00;;;;;;;;5025188;28;47504;-80
2021/12/29 05:22:47;;;;;;;;;1.00;1.00;;;;;;;;5029586;28;45525;-80
2021/12/29 05:25:12;;;;;;;;;3.33;1.00;;;;;;;;5028716;28;45405;-80
2021/12/29 05:27:37;;;;;;;;;0.00;0.00;;;;;;;;5031414;28;45336;-80
2021/12/29 05:30:03;;;;;;;;;1.00;1.00;;;;;;;;5031197;28;47516;-80
2021/12/29 05:32:30;;;;;;;;;2.25;1.00;;;;;;;;5032215;28;45478;-80
2021/12/29 05:34:55;;;;;;;;;1.00;1.00;;;;;;;;5024450;28;48283;-80
2021/12/29 05:37:21;;;;;;;;;1.00;0.00;;;;;;;;5031788;28;45400;-80
2021/12/29 05:39:46;;;;;;;;;2.00;0.00;;;;;;;;5030766;28;47779;-80
2021/12/29 05:42:11;;;;;;;;;1.00;1.00;;;;;;;;5027986;28;46075;-80
2021/12/29 05:44:36;;;;;;;;;0.00;0.00;;;;;;;;5032273;28;45699;-80
2021/12/29 05:47:02;;;;;;;;;1.00;1.00;;;;;;;;5026023;28;45510;-80
2021/12/29 05:49:27;;;;;;;;;1.00;1.00;;;;;;;;5028744;28;48235;-80
2021/12/29 05:51:52;;;;;;;;;1.00;1.00;;;;;;;;5028875;28;45563;-80
2021/12/29 05:54:20;;;;;;;;;0.00;0.00;;;;;;;;5028489;28;45604;-80
2021/12/29 05:56:45;;;;;;;;;2.00;0.25;;;;;;;;5028997;28;45484;-80
2021/12/29 05:59:10;;;;;;;;;1.00;1.00;;;;;;;;5030513;28;47067;-80
2021/12/29 06:01:36;;;;;;;;;1.75;1.00;;;;;;;;5026558;28;45526;-80
2021/12/29 06:04:01;;;;;;;;;1.00;1.00;;;;;;;;5030765;28;45511;-80
2021/12/29 06:06:26;;;;;;;;;2.00;2.00;;;;;;;;5029994;28;45614;-80
2021/12/29 06:08:51;;;;;;;;;0.67;0.33;;;;;;;;5031334;28;45639;-80
2021/12/29 06:11:17;;;;;;;;;1.00;1.00;;;;;;;;5027815;28;45542;-80
2021/12/29 06:13:42;;;;;;;;;0.33;0.00;;;;;;;;5031800;28;45550;-80
2021/12/29 06:16:07;;;;;;;;;1.00;1.00;;;;;;;;5028177;28;45625;-80
2021/12/29 06:18:32;;;;;;;;;0.00;0.00;;;;;;;;5024742;28;46345;-80
2021/12/29 06:20:57;;;;;;;;;1.00;1.00;;;;;;;;5032151;28;46046;-80
2021/12/29 06:23:23;;;;;;;;;0.00;0.00;;;;;;;;5028909;28;45386;-80
2021/12/29 06:25:49;;;;;;;;;1.00;1.00;;;;;;;;5026214;28;45662;-80
2021/12/29 06:28:17;;;;;;;;;1.00;1.00;;;;;;;;5027456;28;47816;-80
2021/12/29 06:30:42;;;;;;;;;1.50;0.00;;;;;;;;5028540;28;45599;-80
2021/12/29 06:33:07;;;;;;;;;0.00;0.00;;;;;;;;5031158;28;45613;-80
2021/12/29 06:35:33;;;;;;;;;1.25;0.00;;;;;;;;5025199;28;45497;-80
2021/12/29 06:37:58;;;;;;;;;1.00;1.00;;;;;;;;5028147;28;45504;-78
2021/12/29 06:40:23;;;;;;;;;0.33;0.33;;;;;;;;5030907;28;45415;-81
2021/12/29 06:42:49;;;;;;;;;0.25;0.25;;;;;;;;5038698;28;45440;-81
2021/12/29 06:45:14;;;;;;;;;0.00;0.00;;;;;;;;5030193;28;45474;-81
2021/12/29 06:47:39;;;;;;;;;2.00;1.00;;;;;;;;5023148;28;47120;-80
2021/12/29 06:50:05;;;;;;;;;0.75;0.75;;;;;;;;5027741;28;48567;-80
2021/12/29 06:52:30;;;;;;;;;1.00;1.00;;;;;;;;5029825;28;45576;-81
2021/12/29 06:54:55;;;;;;;;;0.67;0.67;;;;;;;;5029873;28;45473;-80
2021/12/29 06:57:21;;;;;;;;;1.00;0.50;;;;;;;;5024986;28;45741;-80
2021/12/29 06:59:46;;;;;;;;;0.00;0.00;;;;;;;;5030691;28;48266;-80
2021/12/29 07:02:11;;;;;;;;;1.33;1.00;;;;;;;;5029460;28;45689;-80
2021/12/29 07:04:37;;;;;;;;;0.25;0.00;;;;;;;;5028336;28;47080;-80
2021/12/29 07:07:02;;;;;;;;;2.25;0.50;;;;;;;;5029947;28;45814;-80
2021/12/29 07:09:28;;;;;;;;;0.00;0.00;;;;;;;;5030235;28;45445;-80
2021/12/29 07:11:53;;;;;;;;;0.00;0.00;;;;;;;;5047982;28;45453;-80
2021/12/29 07:14:20;;;;;;;;;0.00;0.00;;;;;;;;5027991;28;45796;-80
2021/12/29 07:16:47;;;;;;;;;0.00;0.00;;;;;;;;5027339;28;47276;-80
2021/12/29 07:19:13;;;;;;;;;0.00;0.00;;;;;;;;5029585;28;45860;-81
2021/12/29 07:21:38;;;;;;;;;0.00;0.00;;;;;;;;5029917;28;45541;-80
2021/12/29 07:24:04;;;;;;;;;0.00;0.00;;;;;;;;5030320;28;45458;-80
2021/12/29 07:26:29;;;;;;;;;0.00;0.00;;;;;;;;5029141;28;47008;-80
2021/12/29 07:28:56;;;;;;;;;0.00;0.00;;;;;;;;5025098;28;45502;-80
2021/12/29 07:31:21;;;;;;;;;0.00;0.00;;;;;;;;5027994;28;45871;-80
2021/12/29 07:33:46;;;;;;;;;1.00;0.00;;;;;;;;5029297;28;45563;-80
2021/12/29 07:36:12;;;;;;;;;0.00;0.00;;;;;;;;5027206;28;47288;-80
2021/12/29 07:38:38;;;;;;;;;0.00;0.00;;;;;;;;5025899;28;45359;-80
2021/12/29 07:41:03;;;;;;;;;0.00;0.00;;;;;;;;5028982;28;45438;-80
2021/12/29 07:43:29;;;;;;;;;0.00;0.00;;;;;;;;5028002;28;45508;-80
2021/12/29 07:45:55;;;;;;;;;0.00;0.00;;;;;;;;5028031;28;46501;-80
2021/12/29 07:48:25;;;;;;;;;0.00;0.00;;;;;;;;5030744;28;46017;-80
2021/12/29 07:50:51;;;;;;;;;0.00;0.00;;;;;;;;5030196;28;45590;-81
2021/12/29 07:53:16;;;;;;;;;0.00;0.00;;;;;;;;5027772;28;45743;-81
2021/12/29 07:55:41;;;;;;;;;0.00;0.00;;;;;;;;5028903;28;45828;-78
2021/12/29 07:58:06;;;;;;;;;0.00;0.00;;;;;;;;5028953;28;45813;-81
2021/12/29 08:00:32;;;;;;;;;0.00;0.00;;;;;;;;5030997;28;45469;-81
2021/12/29 08:02:57;;;;;;;;;0.00;0.00;;;;;;;;5029124;28;45446;-80
2021/12/29 08:05:22;;;;;;;;;0.00;0.00;;;;;;;;5026521;28;47452;-81
2021/12/29 08:07:48;;;;;;;;;0.00;0.00;;;;;;;;5023100;28;45885;-80
2021/12/29 08:10:13;;;;;;;;;1.00;1.00;;;;;;;;5015710;28;45395;-80
2021/12/29 08:12:39;;;;;;;;;0.75;0.00;;;;;;;;5027047;28;45648;-81
2021/12/29 08:15:04;;;;;;;;;2.00;1.00;;;;;;;;5032614;28;46056;-80
2021/12/29 08:17:32;;;;;;;;;0.00;0.00;;;;;;;;5030669;28;45383;-80
2021/12/29 08:19:58;;;;;;;;;0.75;0.75;;;;;;;;5022470;28;45465;-80
2021/12/29 08:22:23;;;;;;;;;1.00;1.00;;;;;;;;5028135;28;45757;-80
2021/12/29 08:24:48;;;;;;;;;1.00;1.00;;;;;;;;5027487;28;47738;-80
2021/12/29 08:27:13;;;;;;;;;1.00;1.00;;;;;;;;5026092;28;45483;-80
2021/12/29 08:29:38;;;;;;;;;1.00;1.00;;;;;;;;5029883;28;45469;-80
2021/12/29 08:32:04;;;;;;;;;2.67;1.00;;;;;;;;5030730;28;45822;-80
2021/12/29 08:34:29;;;;;;;;;2.00;2.00;;;;;;;;5025898;28;46627;-80
2021/12/29 08:36:54;;;;;;;;;2.25;2.00;;;;;;;;5028062;28;45592;-80
2021/12/29 08:39:20;;;;;;;;;1.00;1.00;;;;;;;;5025982;28;45589;-80
2021/12/29 08:41:46;;;;;;;;;3.75;2.00;;;;;;;;5028071;28;45481;-81
2021/12/29 08:44:11;;;;;;;;;1.25;1.00;;;;;;;;5028934;28;45449;-81
2021/12/29 08:46:37;;;;;;;;;3.00;1.00;;;;;;;;5024310;28;45566;-79
2021/12/29 08:49:03;;;;;;;;;1.50;1.50;;;;;;;;5033848;28;45783;-80
2021/12/29 08:51:28;;;;;;;;;2.75;2.00;;;;;;;;5027437;28;45443;-81
2021/12/29 08:53:54;;;;;;;;;5.75;5.00;;;;;;;;5029737;28;45694;-80
2021/12/29 08:56:19;;;;;;;;;5.25;3.75;;;;;;;;5026702;28;45505;-80
2021/12/29 08:58:44;;;;;;;;;4.00;2.00;;;;;;;;5027596;28;45615;-80
2021/12/29 09:01:10;;;;;;;;;1.00;1.00;;;;;;;;5029177;28;45593;-80
2021/12/29 09:03:38;;;;;;;;;3.00;1.00;;;;;;;;5026636;28;46076;-80
2021/12/29 09:06:03;;;;;;;;;1.00;1.00;;;;;;;;5032993;28;45818;-80
2021/12/29 09:08:28;;;;;;;;;3.00;1.00;;;;;;;;5026968;28;45896;-80
2021/12/29 09:10:54;;;;;;;;;3.00;1.25;;;;;;;;5032271;28;45553;-81
2021/12/29 09:13:22;;;;;;;;;3.00;1.33;;;;;;;;5030406;28;47180;-80
2021/12/29 09:15:49;;;;;;;;;3.00;3.00;;;;;;;;5035577;28;45994;-79
2021/12/29 09:18:15;;;;;;;;;5.25;5.00;;;;;;;;5032798;28;45468;-80
2021/12/29 09:20:45;;;;;;;;;3.25;3.25;;;;;;;;5033329;28;45543;-80
2021/12/29 09:23:11;;;;;;;;;1.00;1.00;;;;;;;;5032973;28;45466;-80
2021/12/29 09:25:38;;;;;;;;;3.00;2.00;;;;;;;;5032675;28;45644;-80
2021/12/29 09:28:04;;;;;;;;;2.00;2.00;;;;;;;;5030726;28;45891;-80
2021/12/29 09:30:30;;;;;;;;;1.25;0.75;;;;;;;;5022879;28;45661;-80
2021/12/29 09:32:55;;;;;;;;;0.00;0.00;;;;;;;;5032745;28;48199;-80
2021/12/29 09:35:21;;;;;;;;;1.00;1.00;;;;;;;;5023983;28;45475;-80
2021/12/29 09:37:46;;;;;;;;;0.50;0.50;;;;;;;;5028474;28;45435;-80
2021/12/29 09:40:12;;;;;;;;;1.00;1.00;;;;;;;;5020140;28;45600;-80
2021/12/29 09:42:37;;;;;;;;;1.00;1.00;;;;;;;;5031155;28;45737;-79
2021/12/29 09:45:03;;;;;;;;;1.00;1.00;;;;;;;;5034191;28;45616;-79
2021/12/29 09:47:29;;;;;;;;;1.75;1.00;;;;;;;;5028202;28;45581;-80
2021/12/29 09:49:55;;;;;;;;;1.00;1.00;;;;;;;;5030865;28;45793;-80
2021/12/29 09:52:20;;;;;;;;;0.75;0.75;;;;;;;;5031948;28;46399;-80
2021/12/29 09:54:45;;;;;;;;;0.00;0.00;;;;;;;;5027159;28;45566;-79
2021/12/29 09:57:11;;;;;;;;;1.75;1.75;;;;;;;;5017804;28;45634;-80
2021/12/29 09:59:36;;;;;;;;;2.00;0.00;;;;;;;;5032932;28;45514;-79
2021/12/29 10:02:02;;;;;;;;;0.75;0.75;;;;;;;;5025256;28;46823;-79
2021/12/29 10:04:27;;;;;;;;;0.75;0.75;;;;;;;;5019195;28;45494;-79
2021/12/29 10:06:52;;;;;;;;;1.67;1.67;;;;;;;;5020143;28;45558;-80
2021/12/29 10:09:18;;;;;;;;;0.50;0.50;;;;;;;;5027491;28;45690;-79
2021/12/29 10:11:45;;;;;;;;;1.75;1.75;;;;;;;;5027279;28;47124;-79
2021/12/29 10:14:11;;;;;;;;;2.50;1.50;;;;;;;;5030191;28;45506;-80
2021/12/29 10:16:37;;;;;;;;;5.00;4.00;;;;;;;;5030589;28;45911;-80
2021/12/29 10:19:13;;;;;;;;;1.50;1.50;;;;;;;;5030125;28;45498;-80
2021/12/29 10:21:45;;;;;;;;;0.00;0.00;;;;;;;;5029597;28;45653;-80
2021/12/29 10:24:11;;;;;;;;;0.00;0.00;;;;;;;;5030343;28;45861;-79
2021/12/29 10:26:38;;;;;;;;;1.50;0.00;;;;;;;;5033656;28;45734;-79
2021/12/29 10:29:07;;;;;;;;;0.75;0.00;;;;;;;;5029440;28;45555;-79
2021/12/29 10:31:34;;;;;;;;;0.25;0.25;;;;;;;;5029638;28;45636;-79
2021/12/29 10:34:00;;;;;;;;;0.00;0.00;;;;;;;;5024268;28;45827;-80
2021/12/29 10:36:30;;;;;;;;;0.00;0.00;;;;;;;;5028543;28;45501;-80
2021/12/29 10:38:59;;;;;;;;;0.00;0.00;;;;;;;;5034658;28;45986;-79
2021/12/29 10:41:26;;;;;;;;;0.00;0.00;;;;;;;;5031392;28;46691;-79
2021/12/29 10:43:53;;;;;;;;;0.00;0.00;;;;;;;;5031712;28;45537;-79
2021/12/29 10:46:22;;;;;;;;;0.00;0.00;;;;;;;;5025711;28;45598;-79
2021/12/29 10:48:49;;;;;;;;;0.75;0.00;;;;;;;;5028835;28;45653;-80
2021/12/29 10:51:14;;;;;;;;;0.00;0.00;;;;;;;;5032483;28;46445;-79
2021/12/29 10:53:41;;;;;;;;;0.00;0.00;;;;;;;;5025652;28;45763;-80
2021/12/29 10:56:17;;;;;;;;;0.00;0.00;;;;;;;;5026085;28;45879;-80
2021/12/29 10:58:43;;;;;;;;;0.00;0.00;;;;;;;;5028246;28;45608;-79
2021/12/29 11:01:10;;;;;;;;;0.25;0.00;;;;;;;;5026358;28;45844;-80
2021/12/29 11:03:42;;;;;;;;;0.00;0.00;;;;;;;;5029811;28;45754;-80
2021/12/29 11:06:14;;;;;;;;;0.75;0.00;;;;;;;;5028765;28;45545;-80
2021/12/29 11:08:52;;;;;;;;;0.00;0.00;;;;;;;;5030963;28;45574;-80
2021/12/29 11:11:37;;;;;;;;;0.00;0.00;;;;;;;;5028532;28;45701;-80
2021/12/29 11:14:10;;;;;;;;;0.00;0.00;;;;;;;;5024639;28;45718;-79
2021/12/29 11:16:36;;;;;;;;;0.00;0.00;;;;;;;;5026869;28;45638;-79
2021/12/29 11:19:02;;;;;;;;;0.00;0.00;;;;;;;;5030167;28;45539;-80
2021/12/29 11:21:29;;;;;;;;;0.00;0.00;;;;;;;;5031054;28;45619;-80
2021/12/29 11:23:55;;;;;;;;;0.00;0.00;;;;;;;;5028561;28;46051;-79
2021/12/29 11:26:27;;;;;;;;;0.00;0.00;;;;;;;;5026955;28;45563;-80
2021/12/29 11:28:52;;;;;;;;;0.00;0.00;;;;;;;;5025492;28;45487;-80
2021/12/29 11:31:18;;;;;;;;;0.00;0.00;;;;;;;;5024845;28;46109;-80
2021/12/29 11:33:43;;;;;;;;;0.00;0.00;;;;;;;;5028690;28;45883;-80
2021/12/29 11:36:19;;;;;;;;;0.00;0.00;;;;;;;;5030317;28;45467;-80
2021/12/29 11:38:45;;;;;;;;;0.00;0.00;;;;;;;;5029353;28;45626;-80
2021/12/29 11:41:15;;;;;;;;;0.00;0.00;;;;;;;;5020665;28;47782;-80
2021/12/29 11:43:40;;;;;;;;;0.00;0.00;;;;;;;;5027683;28;45943;-80
2021/12/29 11:46:06;;;;;;;;;0.00;0.00;;;;;;;;5030039;28;45489;-80
2021/12/29 11:48:31;;;;;;;;;0.00;0.00;;;;;;;;5030306;28;45346;-80
2021/12/29 11:51:03;;;;;;;;;0.00;0.00;;;;;;;;5030465;28;45911;-80
2021/12/29 11:53:47;;;;;;;;;0.00;0.00;;;;;;;;5029350;28;45736;-80
2021/12/29 11:56:15;;;;;;;;;0.00;0.00;;;;;;;;5062270;28;45454;-80
2021/12/29 11:58:41;;;;;;;;;0.00;0.00;;;;;;;;5029867;28;45352;-80
2021/12/29 12:01:09;;;;;;;;;0.50;0.00;;;;;;;;5028402;28;46553;-80
2021/12/29 12:03:54;;;;;;;;;0.00;0.00;;;;;;;;5027218;28;45427;-80
2021/12/29 12:06:28;;;;;;;;;0.25;0.00;;;;;;;;5028042;28;45869;-81
2021/12/29 12:09:00;;;;;;;;;0.00;0.00;;;;;;;;5031053;28;45492;-80
2021/12/29 12:11:26;;;;;;;;;1.75;0.00;;;;;;;;5022662;28;46568;-80
2021/12/29 12:13:52;;;;;;;;;1.00;0.00;;;;;;;;5028828;28;45641;-80
2021/12/29 12:16:17;;;;;;;;;0.00;0.00;;;;;;;;5027133;28;45582;-80
2021/12/29 12:18:46;;;;;;;;;0.00;0.00;;;;;;;;5029640;28;45677;-80
2021/12/29 12:21:23;;;;;;;;;0.00;0.00;;;;;;;;5023966;28;47274;-80
2021/12/29 12:23:49;;;;;;;;;0.00;0.00;;;;;;;;5030691;28;46161;-80
2021/12/29 12:26:18;;;;;;;;;0.00;0.00;;;;;;;;5028682;28;45441;-80
2021/12/29 12:28:44;;;;;;;;;0.00;0.00;;;;;;;;5025967;28;45778;-80
2021/12/29 12:31:19;;;;;;;;;0.00;0.00;;;;;;;;5028921;28;45918;-81
2021/12/29 12:33:44;;;;;;;;;0.00;0.00;;;;;;;;5024754;28;46013;-80
2021/12/29 12:36:11;;;;;;;;;0.00;0.00;;;;;;;;5035142;28;45516;-80
2021/12/29 12:38:37;;;;;;;;;0.00;0.00;;;;;;;;5031733;28;45792;-80
2021/12/29 12:41:29;;;;;;;;;0.00;0.00;;;;;;;;5029068;28;48043;-80
2021/12/29 12:43:54;;;;;;;;;0.00;0.00;;;;;;;;5026635;28;45741;-80
2021/12/29 12:46:30;;;;;;;;;0.00;0.00;;;;;;;;5032837;28;45422;-80
2021/12/29 12:48:55;;;;;;;;;0.00;0.00;;;;;;;;5046697;28;45573;-81
2021/12/29 12:51:21;;;;;;;;;0.00;0.00;;;;;;;;5033715;28;45630;-80
2021/12/29 12:53:47;;;;;;;;;1.00;0.00;;;;;;;;5034979;28;45454;-81
2021/12/29 12:56:15;;;;;;;;;0.00;0.00;;;;;;;;5031499;28;45478;-80
2021/12/29 12:58:41;;;;;;;;;0.00;0.00;;;;;;;;5024592;28;45646;-81
2021/12/29 13:01:08;;;;;;;;;0.00;0.00;;;;;;;;5031956;28;45498;-80
2021/12/29 13:03:34;;;;;;;;;0.00;0.00;;;;;;;;5031893;28;45514;-81
2021/12/29 13:05:59;;;;;;;;;0.00;0.00;;;;;;;;5034452;28;45603;-80
2021/12/29 13:08:27;;;;;;;;;0.50;0.00;;;;;;;;5031800;28;45940;-80
2021/12/29 13:10:54;;;;;;;;;0.00;0.00;;;;;;;;5032733;28;46551;-80
2021/12/29 13:13:21;;;;;;;;;0.00;0.00;;;;;;;;5031685;28;45673;-81
2021/12/29 13:15:48;;;;;;;;;0.00;0.00;;;;;;;;5032019;28;46089;-80
2021/12/29 13:18:15;;;;;;;;;0.00;0.00;;;;;;;;5030645;28;45495;-81
2021/12/29 13:20:41;;;;;;;;;0.00;0.00;;;;;;;;5031454;28;46100;-80
2021/12/29 13:23:10;;;;;;;;;1.00;0.00;;;;;;;;5030275;28;45491;-80
2021/12/29 13:25:38;;;;;;;;;0.00;0.00;;;;;;;;5030303;28;45517;-80
2021/12/29 13:28:05;;;;;;;;;1.00;0.00;;;;;;;;5030384;28;45620;-80
2021/12/29 13:30:44;;;;;;;;;0.50;0.00;;;;;;;;5030868;28;48611;-81
2021/12/29 13:33:10;;;;;;;;;0.00;0.00;;;;;;;;5038008;28;46010;-80
2021/12/29 13:35:37;;;;;;;;;0.00;0.00;;;;;;;;5025483;28;47185;-80
2021/12/29 13:38:06;;;;;;;;;0.00;0.00;;;;;;;;5025607;28;45582;-79
2021/12/29 13:40:40;;;;;;;;;0.00;0.00;;;;;;;;5031422;28;45505;-79
2021/12/29 13:43:15;;;;;;;;;2.50;2.50;;;;;;;;5031625;28;45482;-79
2021/12/29 13:45:41;;;;;;;;;0.75;0.00;;;;;;;;5029317;28;45737;-80
2021/12/29 13:48:13;;;;;;;;;0.00;0.00;;;;;;;;5025462;28;45427;-80
2021/12/29 13:50:38;;;;;;;;;0.00;0.00;;;;;;;;5033290;28;46432;-80
2021/12/29 13:53:05;;;;;;;;;0.00;0.00;;;;;;;;5028807;28;45781;-81
2021/12/29 13:55:32;;;;;;;;;0.00;0.00;;;;;;;;5005511;28;45766;-80
2021/12/29 13:57:58;;;;;;;;;0.00;0.00;;;;;;;;5028983;28;45578;-81
2021/12/29 14:00:24;;;;;;;;;0.75;0.00;;;;;;;;5025746;28;48025;-80
2021/12/29 14:02:49;;;;;;;;;0.00;0.00;;;;;;;;5029900;28;45631;-80
2021/12/29 14:05:15;;;;;;;;;0.00;0.00;;;;;;;;5030858;28;45456;-80
2021/12/29 14:07:41;;;;;;;;;0.00;0.00;;;;;;;;5030685;28;45615;-81
2021/12/29 14:10:07;;;;;;;;;0.00;0.00;;;;;;;;5026691;28;46363;-80
2021/12/29 14:12:35;;;;;;;;;0.00;0.00;;;;;;;;5023365;28;45724;-80
2021/12/29 14:15:03;;;;;;;;;1.00;0.00;;;;;;;;5028830;28;45569;-79
2021/12/29 14:17:39;;;;;;;;;1.50;0.00;;;;;;;;5030851;28;45372;-80
2021/12/29 14:20:08;;;;;;;;;1.00;1.00;;;;;;;;5029472;28;46470;-80
2021/12/29 14:22:33;;;;;;;;;2.50;1.25;;;;;;;;5026203;28;46145;-79
2021/12/29 14:25:10;;;;;;;;;0.00;0.00;;;;;;;;5027374;28;45542;-82
2021/12/29 14:30:31;;;;;;;;;1.00;0.00;;;;;;;;4989461;28;46470;-81
2021/12/29 14:32:58;;;;;;;;;0.00;0.00;;;;;;;;4990264;28;45562;-82
2021/12/29 14:35:34;;;;;;;;;0.00;0.00;;;;;;;;4989978;28;45562;-82
2021/12/29 14:38:09;;;;;;;;;0.25;0.00;;;;;;;;4983084;28;45984;-83
2021/12/29 14:40:37;;;;;;;;;0.00;0.00;;;;;;;;4970236;28;48251;-85
2021/12/29 14:43:35;;;;;;;;;1.00;0.00;;;;;;;;4986444;28;45816;-84
2021/12/29 14:46:29;;;;;;;;;0.00;0.00;;;;;;;;4929332;28;45670;-81
2021/12/29 14:49:05;;;;;;;;;0.00;0.00;;;;;;;;4869056;29;45568;-82
2021/12/29 14:51:31;;;;;;;;;0.00;0.00;;;;;;;;4849576;29;48232;-88